sensor_id;sensor_type;location;lat;lon;timestamp;temperature;humidity
39189;DHT22;24915;50.858;4.376;2023-02-26T00:00:35;3.40;99.90
39189;DHT22;24915;50.858;4.376;2023-02-26T00:03:00;3.40;99.90
39189;DHT22;24915;50.858;4.376;2023-02-26T00:05:26;3.40;99.90
39189;DHT22;24915;50.858;4.376;2023-02-26T00:07:52;3.40;99.90
39189;DHT22;24915;50.858;4.376;2023-02-26T00:10:18;3.30;99.90
39189;DHT22;24915;50.858;4.376;2023-02-26T00:12:44;3.30;99.90
39189;DHT22;24915;50.858;4.376;2023-02-26T00:15:11;3.30;99.90
39189;DHT22;24915;50.858;4.376;2023-02-26T00:17:58;3.30;99.90
39189;DHT22;24915;50.858;4.376;2023-02-26T00:20:26;3.30;99.90
39189;DHT22;24915;50.858;4.376;2023-02-26T00:22:52;3.30;99.90
39189;DHT22;24915;50.858;4.376;2023-02-26T00:25:18;3.30;99.90
39189;DHT22;24915;50.858;4.376;2023-02-26T00:27:43;3.30;99.90
39189;DHT22;24915;50.858;4.376;2023-02-26T00:30:10;3.30;99.90
39189;DHT22;24915;50.858;4.376;2023-02-26T00:32:37;3.20;99.90
39189;DHT22;24915;50.858;4.376;2023-02-26T00:35:06;3.30;99.90
39189;DHT22;24915;50.858;4.376;2023-02-26T00:40:44;3.20;99.90
39189;DHT22;24915;50.858;4.376;2023-02-26T00:43:16;3.20;99.90
39189;DHT22;24915;50.858;4.376;2023-02-26T00:46:07;3.20;99.90
39189;DHT22;24915;50.858;4.376;2023-02-26T00:54:02;3.20;99.90
39189;DHT22;24915;50.858;4.376;2023-02-26T00:56:29;3.20;99.90
39189;DHT22;24915;50.858;4.376;2023-02-26T00:58:55;3.20;99.90
39189;DHT22;24915;50.858;4.376;2023-02-26T01:01:21;3.20;99.90
39189;DHT22;24915;50.858;4.376;2023-02-26T01:03:46;3.10;99.90
39189;DHT22;24915;50.858;4.376;2023-02-26T01:06:14;3.10;99.90
39189;DHT22;24915;50.858;4.376;2023-02-26T01:11:26;3.10;99.90
39189;DHT22;24915;50.858;4.376;2023-02-26T01:13:52;3.10;99.90
39189;DHT22;24915;50.858;4.376;2023-02-26T01:16:25;3.10;99.90
39189;DHT22;24915;50.858;4.376;2023-02-26T01:19:29;3.10;99.90
39189;DHT22;24915;50.858;4.376;2023-02-26T01:22:05;3.00;99.90
39189;DHT22;24915;50.858;4.376;2023-02-26T01:24:33;3.00;99.90
39189;DHT22;24915;50.858;4.376;2023-02-26T01:27:00;3.00;99.90
39189;DHT22;24915;50.858;4.376;2023-02-26T01:29:26;3.00;99.90
39189;DHT22;24915;50.858;4.376;2023-02-26T01:31:59;3.00;99.90
39189;DHT22;24915;50.858;4.376;2023-02-26T01:34:40;3.00;99.90
39189;DHT22;24915;50.858;4.376;2023-02-26T01:37:32;3.00;99.90
39189;DHT22;24915;50.858;4.376;2023-02-26T01:42:52;2.90;99.90
39189;DHT22;24915;50.858;4.376;2023-02-26T01:45:31;2.90;99.90
39189;DHT22;24915;50.858;4.376;2023-02-26T01:48:17;2.90;99.90
39189;DHT22;24915;50.858;4.376;2023-02-26T01:50:45;2.90;99.90
39189;DHT22;24915;50.858;4.376;2023-02-26T01:53:25;2.90;99.90
39189;DHT22;24915;50.858;4.376;2023-02-26T01:55:59;2.90;99.90
39189;DHT22;24915;50.858;4.376;2023-02-26T01:58:27;2.90;99.90
39189;DHT22;24915;50.858;4.376;2023-02-26T02:00:55;2.90;99.90
39189;DHT22;24915;50.858;4.376;2023-02-26T02:03:22;2.90;99.90
39189;DHT22;24915;50.858;4.376;2023-02-26T02:06:08;2.90;99.90
39189;DHT22;24915;50.858;4.376;2023-02-26T02:08:35;2.90;99.90
39189;DHT22;24915;50.858;4.376;2023-02-26T02:11:02;2.90;99.90
39189;DHT22;24915;50.858;4.376;2023-02-26T02:13:36;2.80;99.90
39189;DHT22;24915;50.858;4.376;2023-02-26T02:16:14;2.80;99.90
39189;DHT22;24915;50.858;4.376;2023-02-26T02:21:27;2.90;99.90
39189;DHT22;24915;50.858;4.376;2023-02-26T02:24:03;2.80;99.90
39189;DHT22;24915;50.858;4.376;2023-02-26T02:34:32;2.80;99.90
39189;DHT22;24915;50.858;4.376;2023-02-26T02:37:07;2.80;99.90
39189;DHT22;24915;50.858;4.376;2023-02-26T02:39:46;2.80;99.90
39189;DHT22;24915;50.858;4.376;2023-02-26T02:42:30;2.70;99.90
39189;DHT22;24915;50.858;4.376;2023-02-26T02:45:02;2.80;99.90
39189;DHT22;24915;50.858;4.376;2023-02-26T02:47:31;2.70;99.90
39189;DHT22;24915;50.858;4.376;2023-02-26T02:50:04;2.70;99.90
39189;DHT22;24915;50.858;4.376;2023-02-26T02:53:00;2.70;99.90
39189;DHT22;24915;50.858;4.376;2023-02-26T02:55:31;2.70;99.90
39189;DHT22;24915;50.858;4.376;2023-02-26T02:58:14;2.70;99.90
39189;DHT22;24915;50.858;4.376;2023-02-26T03:00:53;2.70;99.90
39189;DHT22;24915;50.858;4.376;2023-02-26T03:03:53;2.80;99.90
39189;DHT22;24915;50.858;4.376;2023-02-26T03:06:20;2.80;99.90
39189;DHT22;24915;50.858;4.376;2023-02-26T03:08:47;2.80;99.90
39189;DHT22;24915;50.858;4.376;2023-02-26T03:11:12;2.80;99.90
39189;DHT22;24915;50.858;4.376;2023-02-26T03:13:39;2.90;99.90
39189;DHT22;24915;50.858;4.376;2023-02-26T03:19:23;2.80;99.90
39189;DHT22;24915;50.858;4.376;2023-02-26T03:21:55;2.90;99.90
39189;DHT22;24915;50.858;4.376;2023-02-26T03:24:35;2.90;99.90
39189;DHT22;24915;50.858;4.376;2023-02-26T03:27:04;2.90;99.90
39189;DHT22;24915;50.858;4.376;2023-02-26T03:29:51;2.80;99.90
39189;DHT22;24915;50.858;4.376;2023-02-26T03:32:43;2.80;99.90
39189;DHT22;24915;50.858;4.376;2023-02-26T03:35:29;2.80;99.90
39189;DHT22;24915;50.858;4.376;2023-02-26T03:38:01;2.80;99.90
39189;DHT22;24915;50.858;4.376;2023-02-26T03:40:41;2.80;99.90
39189;DHT22;24915;50.858;4.376;2023-02-26T03:43:21;2.70;99.90
39189;DHT22;24915;50.858;4.376;2023-02-26T03:45:50;2.80;99.90
39189;DHT22;24915;50.858;4.376;2023-02-26T03:48:22;2.70;99.90
39189;DHT22;24915;50.858;4.376;2023-02-26T03:50:53;2.70;99.90
39189;DHT22;24915;50.858;4.376;2023-02-26T03:53:24;2.60;99.90
39189;DHT22;24915;50.858;4.376;2023-02-26T03:56:05;2.70;99.90
39189;DHT22;24915;50.858;4.376;2023-02-26T03:58:32;2.60;99.90
39189;DHT22;24915;50.858;4.376;2023-02-26T04:01:05;2.60;99.90
39189;DHT22;24915;50.858;4.376;2023-02-26T04:03:37;2.60;99.90
39189;DHT22;24915;50.858;4.376;2023-02-26T04:06:04;2.50;99.90
39189;DHT22;24915;50.858;4.376;2023-02-26T04:08:31;2.50;99.90
39189;DHT22;24915;50.858;4.376;2023-02-26T04:11:06;2.50;99.90
39189;DHT22;24915;50.858;4.376;2023-02-26T04:13:33;2.50;99.90
39189;DHT22;24915;50.858;4.376;2023-02-26T04:15:59;2.40;99.90
39189;DHT22;24915;50.858;4.376;2023-02-26T04:18:25;2.50;99.90
39189;DHT22;24915;50.858;4.376;2023-02-26T04:20:51;2.50;99.90
39189;DHT22;24915;50.858;4.376;2023-02-26T04:23:16;2.50;99.90
39189;DHT22;24915;50.858;4.376;2023-02-26T04:25:44;2.40;99.90
39189;DHT22;24915;50.858;4.376;2023-02-26T04:28:09;2.40;99.90
39189;DHT22;24915;50.858;4.376;2023-02-26T04:30:35;2.40;99.90
39189;DHT22;24915;50.858;4.376;2023-02-26T04:33:01;2.40;99.90
39189;DHT22;24915;50.858;4.376;2023-02-26T04:35:27;2.30;99.90
39189;DHT22;24915;50.858;4.376;2023-02-26T04:37:52;2.30;99.90
39189;DHT22;24915;50.858;4.376;2023-02-26T04:40:18;2.30;99.90
39189;DHT22;24915;50.858;4.376;2023-02-26T04:42:44;2.20;99.90
39189;DHT22;24915;50.858;4.376;2023-02-26T04:45:09;2.20;99.90
39189;DHT22;24915;50.858;4.376;2023-02-26T04:47:35;2.20;99.90
39189;DHT22;24915;50.858;4.376;2023-02-26T04:50:01;2.20;99.90
39189;DHT22;24915;50.858;4.376;2023-02-26T04:52:26;2.20;99.90
39189;DHT22;24915;50.858;4.376;2023-02-26T04:54:52;2.20;99.90
39189;DHT22;24915;50.858;4.376;2023-02-26T04:57:18;2.10;99.90
39189;DHT22;24915;50.858;4.376;2023-02-26T04:59:43;2.10;99.90
39189;DHT22;24915;50.858;4.376;2023-02-26T05:02:09;2.10;99.90
39189;DHT22;24915;50.858;4.376;2023-02-26T05:04:35;2.10;99.90
39189;DHT22;24915;50.858;4.376;2023-02-26T05:07:00;2.00;99.90
39189;DHT22;24915;50.858;4.376;2023-02-26T05:09:26;2.00;99.90
39189;DHT22;24915;50.858;4.376;2023-02-26T05:11:52;2.00;99.90
39189;DHT22;24915;50.858;4.376;2023-02-26T05:14:17;2.00;99.90
39189;DHT22;24915;50.858;4.376;2023-02-26T05:16:43;2.00;99.90
39189;DHT22;24915;50.858;4.376;2023-02-26T05:19:09;2.00;99.90
39189;DHT22;24915;50.858;4.376;2023-02-26T05:21:35;2.00;99.90
39189;DHT22;24915;50.858;4.376;2023-02-26T05:24:00;2.00;99.90
39189;DHT22;24915;50.858;4.376;2023-02-26T05:26:26;2.00;99.90
39189;DHT22;24915;50.858;4.376;2023-02-26T05:28:52;1.90;99.90
39189;DHT22;24915;50.858;4.376;2023-02-26T05:31:17;1.80;99.90
39189;DHT22;24915;50.858;4.376;2023-02-26T05:33:43;1.80;99.90
39189;DHT22;24915;50.858;4.376;2023-02-26T05:36:09;1.80;99.90
39189;DHT22;24915;50.858;4.376;2023-02-26T05:38:35;1.80;99.90
39189;DHT22;24915;50.858;4.376;2023-02-26T05:41:01;1.80;99.90
39189;DHT22;24915;50.858;4.376;2023-02-26T05:43:27;1.80;99.90
39189;DHT22;24915;50.858;4.376;2023-02-26T05:45:53;1.80;99.90
39189;DHT22;24915;50.858;4.376;2023-02-26T05:48:20;1.80;99.90
39189;DHT22;24915;50.858;4.376;2023-02-26T05:50:47;1.80;99.90
39189;DHT22;24915;50.858;4.376;2023-02-26T05:53:13;1.70;99.90
39189;DHT22;24915;50.858;4.376;2023-02-26T05:55:39;1.70;99.90
39189;DHT22;24915;50.858;4.376;2023-02-26T05:58:04;1.70;99.90
39189;DHT22;24915;50.858;4.376;2023-02-26T06:00:30;1.70;99.90
39189;DHT22;24915;50.858;4.376;2023-02-26T06:02:56;1.70;99.90
39189;DHT22;24915;50.858;4.376;2023-02-26T06:05:22;1.60;99.90
39189;DHT22;24915;50.858;4.376;2023-02-26T06:07:47;1.60;99.90
39189;DHT22;24915;50.858;4.376;2023-02-26T06:10:13;1.60;99.90
39189;DHT22;24915;50.858;4.376;2023-02-26T06:12:39;1.60;99.90
39189;DHT22;24915;50.858;4.376;2023-02-26T06:15:06;1.60;99.90
39189;DHT22;24915;50.858;4.376;2023-02-26T06:17:32;1.60;99.90
39189;DHT22;24915;50.858;4.376;2023-02-26T06:19:58;1.60;99.90
39189;DHT22;24915;50.858;4.376;2023-02-26T06:22:24;1.60;99.90
39189;DHT22;24915;50.858;4.376;2023-02-26T06:24:50;1.60;99.90
39189;DHT22;24915;50.858;4.376;2023-02-26T06:27:15;1.50;99.90
39189;DHT22;24915;50.858;4.376;2023-02-26T06:29:41;1.50;99.90
39189;DHT22;24915;50.858;4.376;2023-02-26T06:32:07;1.50;99.90
39189;DHT22;24915;50.858;4.376;2023-02-26T06:34:33;1.50;99.90
39189;DHT22;24915;50.858;4.376;2023-02-26T06:36:59;1.50;99.90
39189;DHT22;24915;50.858;4.376;2023-02-26T06:39:24;1.50;99.90
39189;DHT22;24915;50.858;4.376;2023-02-26T06:41:50;1.50;99.90
39189;DHT22;24915;50.858;4.376;2023-02-26T06:44:16;1.50;99.90
39189;DHT22;24915;50.858;4.376;2023-02-26T06:46:42;1.40;99.90
39189;DHT22;24915;50.858;4.376;2023-02-26T06:49:07;1.50;99.90
39189;DHT22;24915;50.858;4.376;2023-02-26T06:51:34;1.50;99.90
39189;DHT22;24915;50.858;4.376;2023-02-26T06:54:00;1.40;99.90
39189;DHT22;24915;50.858;4.376;2023-02-26T06:56:25;1.40;99.90
39189;DHT22;24915;50.858;4.376;2023-02-26T06:58:51;1.40;99.90
39189;DHT22;24915;50.858;4.376;2023-02-26T07:01:17;1.50;99.90
39189;DHT22;24915;50.858;4.376;2023-02-26T07:03:43;1.50;99.90
39189;DHT22;24915;50.858;4.376;2023-02-26T07:06:10;1.50;99.90
39189;DHT22;24915;50.858;4.376;2023-02-26T07:08:36;1.60;99.90
39189;DHT22;24915;50.858;4.376;2023-02-26T07:11:03;1.70;99.90
39189;DHT22;24915;50.858;4.376;2023-02-26T07:13:29;1.90;99.90
39189;DHT22;24915;50.858;4.376;2023-02-26T07:15:55;2.00;99.90
39189;DHT22;24915;50.858;4.376;2023-02-26T07:18:20;2.20;99.90
39189;DHT22;24915;50.858;4.376;2023-02-26T07:20:48;2.30;99.90
39189;DHT22;24915;50.858;4.376;2023-02-26T07:23:14;2.40;99.90
39189;DHT22;24915;50.858;4.376;2023-02-26T07:25:40;2.60;99.90
39189;DHT22;24915;50.858;4.376;2023-02-26T07:28:06;2.70;99.90
39189;DHT22;24915;50.858;4.376;2023-02-26T07:30:32;2.90;99.90
39189;DHT22;24915;50.858;4.376;2023-02-26T07:32:58;3.00;99.90
39189;DHT22;24915;50.858;4.376;2023-02-26T07:35:24;3.10;99.90
39189;DHT22;24915;50.858;4.376;2023-02-26T07:37:50;3.10;99.90
39189;DHT22;24915;50.858;4.376;2023-02-26T07:40:17;3.30;99.90
39189;DHT22;24915;50.858;4.376;2023-02-26T07:42:43;3.30;99.90
39189;DHT22;24915;50.858;4.376;2023-02-26T07:45:09;3.50;99.90
39189;DHT22;24915;50.858;4.376;2023-02-26T07:47:35;3.60;99.90
39189;DHT22;24915;50.858;4.376;2023-02-26T07:50:01;3.70;99.90
39189;DHT22;24915;50.858;4.376;2023-02-26T07:52:27;3.80;99.90
39189;DHT22;24915;50.858;4.376;2023-02-26T07:54:53;3.90;99.90
39189;DHT22;24915;50.858;4.376;2023-02-26T07:57:19;4.10;99.90
39189;DHT22;24915;50.858;4.376;2023-02-26T07:59:44;4.20;99.90
39189;DHT22;24915;50.858;4.376;2023-02-26T08:02:11;4.40;99.90
39189;DHT22;24915;50.858;4.376;2023-02-26T08:04:38;4.50;99.90
39189;DHT22;24915;50.858;4.376;2023-02-26T08:07:03;4.70;99.90
39189;DHT22;24915;50.858;4.376;2023-02-26T08:09:29;4.80;99.90
39189;DHT22;24915;50.858;4.376;2023-02-26T08:11:55;4.90;99.90
39189;DHT22;24915;50.858;4.376;2023-02-26T08:14:21;5.00;99.90
39189;DHT22;24915;50.858;4.376;2023-02-26T08:16:47;5.10;99.90
39189;DHT22;24915;50.858;4.376;2023-02-26T08:19:13;5.20;99.90
39189;DHT22;24915;50.858;4.376;2023-02-26T08:21:39;5.20;99.90
39189;DHT22;24915;50.858;4.376;2023-02-26T08:24:05;5.30;99.90
39189;DHT22;24915;50.858;4.376;2023-02-26T08:26:33;5.30;99.90
39189;DHT22;24915;50.858;4.376;2023-02-26T08:28:59;5.40;99.90
39189;DHT22;24915;50.858;4.376;2023-02-26T08:31:24;5.50;99.90
39189;DHT22;24915;50.858;4.376;2023-02-26T08:33:52;5.50;99.90
39189;DHT22;24915;50.858;4.376;2023-02-26T08:36:18;5.60;99.90
39189;DHT22;24915;50.858;4.376;2023-02-26T08:38:46;5.80;99.90
39189;DHT22;24915;50.858;4.376;2023-02-26T08:41:12;5.90;99.90
39189;DHT22;24915;50.858;4.376;2023-02-26T08:43:37;5.90;99.90
39189;DHT22;24915;50.858;4.376;2023-02-26T08:46:03;6.00;99.90
39189;DHT22;24915;50.858;4.376;2023-02-26T08:48:29;6.00;99.90
39189;DHT22;24915;50.858;4.376;2023-02-26T08:50:55;6.10;99.90
39189;DHT22;24915;50.858;4.376;2023-02-26T08:53:20;6.20;99.90
39189;DHT22;24915;50.858;4.376;2023-02-26T08:55:50;6.40;99.90
39189;DHT22;24915;50.858;4.376;2023-02-26T08:58:17;6.50;99.90
39189;DHT22;24915;50.858;4.376;2023-02-26T09:00:43;6.50;99.90
39189;DHT22;24915;50.858;4.376;2023-02-26T09:03:09;6.50;99.90
39189;DHT22;24915;50.858;4.376;2023-02-26T09:05:35;6.50;99.90
39189;DHT22;24915;50.858;4.376;2023-02-26T09:08:01;6.60;99.90
39189;DHT22;24915;50.858;4.376;2023-02-26T09:10:27;6.70;99.90
39189;DHT22;24915;50.858;4.376;2023-02-26T09:12:52;6.60;99.50
39189;DHT22;24915;50.858;4.376;2023-02-26T09:15:18;6.60;99.90
39189;DHT22;24915;50.858;4.376;2023-02-26T09:17:44;6.60;99.90
39189;DHT22;24915;50.858;4.376;2023-02-26T09:20:11;6.70;99.90
39189;DHT22;24915;50.858;4.376;2023-02-26T09:22:38;6.80;99.90
39189;DHT22;24915;50.858;4.376;2023-02-26T09:25:05;7.00;99.90
39189;DHT22;24915;50.858;4.376;2023-02-26T09:27:31;7.10;99.30
39189;DHT22;24915;50.858;4.376;2023-02-26T09:29:57;7.30;98.80
39189;DHT22;24915;50.858;4.376;2023-02-26T09:32:23;7.40;98.30
39189;DHT22;24915;50.858;4.376;2023-02-26T09:34:50;7.40;98.10
39189;DHT22;24915;50.858;4.376;2023-02-26T09:37:16;7.40;98.20
39189;DHT22;24915;50.858;4.376;2023-02-26T09:39:41;7.40;97.90
39189;DHT22;24915;50.858;4.376;2023-02-26T09:44:50;7.60;97.40
39189;DHT22;24915;50.858;4.376;2023-02-26T09:47:37;7.60;97.60
39189;DHT22;24915;50.858;4.376;2023-02-26T09:53:23;7.80;96.90
39189;DHT22;24915;50.858;4.376;2023-02-26T09:55:52;7.90;96.50
39189;DHT22;24915;50.858;4.376;2023-02-26T09:58:23;8.00;95.90
39189;DHT22;24915;50.858;4.376;2023-02-26T10:06:26;8.10;95.20
39189;DHT22;24915;50.858;4.376;2023-02-26T10:08:59;8.10;94.90
39189;DHT22;24915;50.858;4.376;2023-02-26T10:14:03;8.10;94.60
39189;DHT22;24915;50.858;4.376;2023-02-26T10:16:36;8.20;94.60
39189;DHT22;24915;50.858;4.376;2023-02-26T10:19:10;8.40;95.00
39189;DHT22;24915;50.858;4.376;2023-02-26T10:21:39;8.50;93.50
39189;DHT22;24915;50.858;4.376;2023-02-26T10:24:14;8.50;93.30
39189;DHT22;24915;50.858;4.376;2023-02-26T10:26:54;8.50;92.40
39189;DHT22;24915;50.858;4.376;2023-02-26T10:29:38;8.40;92.70
39189;DHT22;24915;50.858;4.376;2023-02-26T10:35:06;8.20;92.90
39189;DHT22;24915;50.858;4.376;2023-02-26T10:51:14;7.60;91.20
39189;DHT22;24915;50.858;4.376;2023-02-26T10:53:48;7.60;91.80
39189;DHT22;24915;50.858;4.376;2023-02-26T10:56:24;7.60;91.50
39189;DHT22;24915;50.858;4.376;2023-02-26T10:58:51;7.70;91.90
39189;DHT22;24915;50.858;4.376;2023-02-26T11:01:19;7.90;91.60
39189;DHT22;24915;50.858;4.376;2023-02-26T11:03:47;8.10;90.50
39189;DHT22;24915;50.858;4.376;2023-02-26T11:06:29;8.10;88.30
39189;DHT22;24915;50.858;4.376;2023-02-26T11:08:57;8.10;89.80
39189;DHT22;24915;50.858;4.376;2023-02-26T11:11:45;7.90;89.30
39189;DHT22;24915;50.858;4.376;2023-02-26T11:14:11;7.80;89.20
39189;DHT22;24915;50.858;4.376;2023-02-26T11:16:49;7.80;90.10
39189;DHT22;24915;50.858;4.376;2023-02-26T11:19:22;7.80;89.80
39189;DHT22;24915;50.858;4.376;2023-02-26T11:21:50;7.70;89.30
39189;DHT22;24915;50.858;4.376;2023-02-26T11:24:36;7.50;89.10
39189;DHT22;24915;50.858;4.376;2023-02-26T11:27:05;7.40;90.20
39189;DHT22;24915;50.858;4.376;2023-02-26T11:29:42;7.40;90.40
39189;DHT22;24915;50.858;4.376;2023-02-26T11:32:20;7.70;90.60
39189;DHT22;24915;50.858;4.376;2023-02-26T11:34:48;8.10;90.10
39189;DHT22;24915;50.858;4.376;2023-02-26T11:37:23;8.20;88.80
39189;DHT22;24915;50.858;4.376;2023-02-26T11:39:59;8.30;88.90
39189;DHT22;24915;50.858;4.376;2023-02-26T11:42:28;8.50;88.50
39189;DHT22;24915;50.858;4.376;2023-02-26T11:44:54;8.60;89.60
39189;DHT22;24915;50.858;4.376;2023-02-26T11:47:29;8.60;87.70
39189;DHT22;24915;50.858;4.376;2023-02-26T11:50:00;8.50;87.30
39189;DHT22;24915;50.858;4.376;2023-02-26T11:52:32;8.40;88.00
39189;DHT22;24915;50.858;4.376;2023-02-26T11:55:19;8.40;88.60
39189;DHT22;24915;50.858;4.376;2023-02-26T11:57:50;8.40;90.10
39189;DHT22;24915;50.858;4.376;2023-02-26T12:00:38;8.60;91.10
39189;DHT22;24915;50.858;4.376;2023-02-26T12:03:07;8.90;90.80
39189;DHT22;24915;50.858;4.376;2023-02-26T12:05:35;9.30;90.80
39189;DHT22;24915;50.858;4.376;2023-02-26T12:08:04;9.60;89.40
39189;DHT22;24915;50.858;4.376;2023-02-26T12:11:05;9.60;88.40
39189;DHT22;24915;50.858;4.376;2023-02-26T12:16:10;9.20;86.70
39189;DHT22;24915;50.858;4.376;2023-02-26T12:24:40;10.40;88.30
39189;DHT22;24915;50.858;4.376;2023-02-26T12:29:56;11.90;85.50
39189;DHT22;24915;50.858;4.376;2023-02-26T12:32:49;12.30;84.30
39189;DHT22;24915;50.858;4.376;2023-02-26T12:35:36;12.60;80.50
39189;DHT22;24915;50.858;4.376;2023-02-26T12:43:53;12.80;74.60
39189;DHT22;24915;50.858;4.376;2023-02-26T12:55:18;13.60;71.80
39189;DHT22;24915;50.858;4.376;2023-02-26T13:09:33;14.00;69.40
39189;DHT22;24915;50.858;4.376;2023-02-26T13:12:18;14.10;67.60
39189;DHT22;24915;50.858;4.376;2023-02-26T13:15:17;14.10;68.00
39189;DHT22;24915;50.858;4.376;2023-02-26T13:20:17;14.00;65.80
39189;DHT22;24915;50.858;4.376;2023-02-26T13:22:50;14.00;63.90
39189;DHT22;24915;50.858;4.376;2023-02-26T13:25:21;13.70;63.90
39189;DHT22;24915;50.858;4.376;2023-02-26T13:27:50;13.60;64.20
39189;DHT22;24915;50.858;4.376;2023-02-26T13:30:53;13.60;65.60
39189;DHT22;24915;50.858;4.376;2023-02-26T13:33:17;13.90;65.10
39189;DHT22;24915;50.858;4.376;2023-02-26T13:35:46;14.10;62.50
39189;DHT22;24915;50.858;4.376;2023-02-26T13:38:27;14.10;62.10
39189;DHT22;24915;50.858;4.376;2023-02-26T13:41:33;14.20;62.60
39189;DHT22;24915;50.858;4.376;2023-02-26T13:49:54;15.30;62.00
39189;DHT22;24915;50.858;4.376;2023-02-26T13:52:30;15.30;59.00
39189;DHT22;24915;50.858;4.376;2023-02-26T13:54:56;15.20;59.50
39189;DHT22;24915;50.858;4.376;2023-02-26T13:57:35;15.30;58.70
39189;DHT22;24915;50.858;4.376;2023-02-26T14:00:21;15.50;59.80
39189;DHT22;24915;50.858;4.376;2023-02-26T14:02:51;15.70;58.10
39189;DHT22;24915;50.858;4.376;2023-02-26T14:05:51;16.00;59.10
39189;DHT22;24915;50.858;4.376;2023-02-26T14:13:20;16.20;55.60
39189;DHT22;24915;50.858;4.376;2023-02-26T14:16:08;16.10;55.00
39189;DHT22;24915;50.858;4.376;2023-02-26T14:24:01;16.50;54.50
39189;DHT22;24915;50.858;4.376;2023-02-26T14:26:32;17.00;53.50
39189;DHT22;24915;50.858;4.376;2023-02-26T14:34:23;20.10;49.40
39189;DHT22;24915;50.858;4.376;2023-02-26T14:36:55;21.30;46.60
39189;DHT22;24915;50.858;4.376;2023-02-26T14:39:23;21.70;43.70
39189;DHT22;24915;50.858;4.376;2023-02-26T14:41:52;22.00;42.00
39189;DHT22;24915;50.858;4.376;2023-02-26T14:44:29;22.60;41.50
39189;DHT22;24915;50.858;4.376;2023-02-26T14:46:56;22.90;39.50
39189;DHT22;24915;50.858;4.376;2023-02-26T14:49:26;23.20;39.30
39189;DHT22;24915;50.858;4.376;2023-02-26T15:00:46;25.20;34.80
39189;DHT22;24915;50.858;4.376;2023-02-26T15:06:55;25.20;33.60
39189;DHT22;24915;50.858;4.376;2023-02-26T15:09:39;25.60;33.30
39189;DHT22;24915;50.858;4.376;2023-02-26T15:26:03;24.50;32.70
39189;DHT22;24915;50.858;4.376;2023-02-26T15:28:33;24.30;32.80
39189;DHT22;24915;50.858;4.376;2023-02-26T15:31:02;24.10;33.00
39189;DHT22;24915;50.858;4.376;2023-02-26T15:33:31;23.90;33.50
39189;DHT22;24915;50.858;4.376;2023-02-26T15:35:57;23.90;34.40
39189;DHT22;24915;50.858;4.376;2023-02-26T15:38:24;23.80;32.90
39189;DHT22;24915;50.858;4.376;2023-02-26T15:40:52;23.30;32.80
39189;DHT22;24915;50.858;4.376;2023-02-26T15:43:27;22.90;33.90
39189;DHT22;24915;50.858;4.376;2023-02-26T15:45:55;22.80;34.00
39189;DHT22;24915;50.858;4.376;2023-02-26T15:48:27;22.60;34.20
39189;DHT22;24915;50.858;4.376;2023-02-26T15:50:56;22.40;34.90
39189;DHT22;24915;50.858;4.376;2023-02-26T15:53:33;22.30;34.70
39189;DHT22;24915;50.858;4.376;2023-02-26T15:56:03;21.90;34.90
39189;DHT22;24915;50.858;4.376;2023-02-26T15:59:29;21.60;35.40
39189;DHT22;24915;50.858;4.376;2023-02-26T16:01:31;21.10;35.90
39189;DHT22;24915;50.858;4.376;2023-02-26T16:04:02;20.70;36.10
39189;DHT22;24915;50.858;4.376;2023-02-26T16:06:35;20.20;36.80
39189;DHT22;24915;50.858;4.376;2023-02-26T16:09:02;19.30;37.80
39189;DHT22;24915;50.858;4.376;2023-02-26T16:11:33;17.50;39.70
39189;DHT22;24915;50.858;4.376;2023-02-26T16:14:00;15.30;43.10
39189;DHT22;24915;50.858;4.376;2023-02-26T16:16:39;13.40;46.00
39189;DHT22;24915;50.858;4.376;2023-02-26T16:19:05;12.10;49.30
39189;DHT22;24915;50.858;4.376;2023-02-26T16:21:35;11.00;51.30
39189;DHT22;24915;50.858;4.376;2023-02-26T16:24:05;10.20;52.70
39189;DHT22;24915;50.858;4.376;2023-02-26T16:26:36;9.70;54.10
39189;DHT22;24915;50.858;4.376;2023-02-26T16:29:19;9.10;55.50
39189;DHT22;24915;50.858;4.376;2023-02-26T16:31:50;8.70;56.20
39189;DHT22;24915;50.858;4.376;2023-02-26T16:39:45;7.90;59.50
39189;DHT22;24915;50.858;4.376;2023-02-26T16:42:13;7.80;59.80
39189;DHT22;24915;50.858;4.376;2023-02-26T16:47:10;7.40;60.50
39189;DHT22;24915;50.858;4.376;2023-02-26T16:49:38;7.30;61.50
39189;DHT22;24915;50.858;4.376;2023-02-26T16:52:06;7.30;62.20
39189;DHT22;24915;50.858;4.376;2023-02-26T16:54:38;7.10;62.80
39189;DHT22;24915;50.858;4.376;2023-02-26T16:57:17;7.10;63.20
39189;DHT22;24915;50.858;4.376;2023-02-26T16:59:57;6.90;63.30
39189;DHT22;24915;50.858;4.376;2023-02-26T17:02:30;6.80;63.90
39189;DHT22;24915;50.858;4.376;2023-02-26T17:05:13;6.80;65.40
39189;DHT22;24915;50.858;4.376;2023-02-26T17:07:47;6.70;65.80
39189;DHT22;24915;50.858;4.376;2023-02-26T17:10:21;6.60;66.00
39189;DHT22;24915;50.858;4.376;2023-02-26T17:12:50;6.60;66.90
39189;DHT22;24915;50.858;4.376;2023-02-26T17:15:17;6.50;66.80
39189;DHT22;24915;50.858;4.376;2023-02-26T17:17:45;6.40;67.50
39189;DHT22;24915;50.858;4.376;2023-02-26T17:20:11;6.30;68.10
39189;DHT22;24915;50.858;4.376;2023-02-26T17:22:37;6.30;68.70
39189;DHT22;24915;50.858;4.376;2023-02-26T17:25:03;6.20;69.30
39189;DHT22;24915;50.858;4.376;2023-02-26T17:27:33;6.20;69.30
39189;DHT22;24915;50.858;4.376;2023-02-26T17:30:01;6.20;70.00
39189;DHT22;24915;50.858;4.376;2023-02-26T17:32:27;6.10;70.20
39189;DHT22;24915;50.858;4.376;2023-02-26T17:34:55;6.10;70.60
39189;DHT22;24915;50.858;4.376;2023-02-26T17:37:22;6.00;71.80
39189;DHT22;24915;50.858;4.376;2023-02-26T17:39:49;6.00;71.80
39189;DHT22;24915;50.858;4.376;2023-02-26T17:42:18;5.90;71.80
39189;DHT22;24915;50.858;4.376;2023-02-26T17:44:46;5.90;72.50
39189;DHT22;24915;50.858;4.376;2023-02-26T17:47:15;5.90;73.10
39189;DHT22;24915;50.858;4.376;2023-02-26T17:49:42;5.80;72.80
39189;DHT22;24915;50.858;4.376;2023-02-26T17:52:08;5.80;73.30
39189;DHT22;24915;50.858;4.376;2023-02-26T17:54:34;5.80;73.80
39189;DHT22;24915;50.858;4.376;2023-02-26T17:56:59;5.70;74.00
39189;DHT22;24915;50.858;4.376;2023-02-26T17:59:25;5.70;74.70
39189;DHT22;24915;50.858;4.376;2023-02-26T18:01:51;5.60;75.00
39189;DHT22;24915;50.858;4.376;2023-02-26T18:04:18;5.60;75.50
39189;DHT22;24915;50.858;4.376;2023-02-26T18:06:43;5.60;75.20
39189;DHT22;24915;50.858;4.376;2023-02-26T18:09:11;5.60;76.00
39189;DHT22;24915;50.858;4.376;2023-02-26T18:11:37;5.60;75.90
39189;DHT22;24915;50.858;4.376;2023-02-26T18:14:04;5.50;76.90
39189;DHT22;24915;50.858;4.376;2023-02-26T18:16:36;5.50;77.00
39189;DHT22;24915;50.858;4.376;2023-02-26T18:19:03;5.50;77.70
39189;DHT22;24915;50.858;4.376;2023-02-26T18:21:30;5.40;77.70
39189;DHT22;24915;50.858;4.376;2023-02-26T18:23:56;5.40;78.20
39189;DHT22;24915;50.858;4.376;2023-02-26T18:26:23;5.40;78.30
39189;DHT22;24915;50.858;4.376;2023-02-26T18:28:52;5.40;79.00
39189;DHT22;24915;50.858;4.376;2023-02-26T18:31:20;5.40;78.70
39189;DHT22;24915;50.858;4.376;2023-02-26T18:33:46;5.30;79.40
39189;DHT22;24915;50.858;4.376;2023-02-26T18:36:26;5.30;79.40